sensor_id;sensor_type;location;lat;lon;timestamp;temperature;humidity
5617;DHT22;2830;50.656;7.568;2023-12-20T00:02:16;5.30;99.90
5617;DHT22;2830;50.656;7.568;2023-12-20T00:04:43;5.30;99.90
5617;DHT22;2830;50.656;7.568;2023-12-20T00:07:11;5.40;99.90
5617;DHT22;2830;50.656;7.568;2023-12-20T00:09:38;5.40;99.90
5617;DHT22;2830;50.656;7.568;2023-12-20T00:12:05;5.40;99.90
5617;DHT22;2830;50.656;7.568;2023-12-20T00:14:32;5.40;99.90
5617;DHT22;2830;50.656;7.568;2023-12-20T00:16:59;5.40;99.90
5617;DHT22;2830;50.656;7.568;2023-12-20T00:19:26;5.40;99.90
5617;DHT22;2830;50.656;7.568;2023-12-20T00:21:53;5.40;99.90
5617;DHT22;2830;50.656;7.568;2023-12-20T00:24:20;5.40;99.90
5617;DHT22;2830;50.656;7.568;2023-12-20T00:26:47;5.40;99.90
5617;DHT22;2830;50.656;7.568;2023-12-20T00:29:14;5.40;99.90
5617;DHT22;2830;50.656;7.568;2023-12-20T00:31:41;5.40;99.90
5617;DHT22;2830;50.656;7.568;2023-12-20T00:34:08;5.40;99.90
5617;DHT22;2830;50.656;7.568;2023-12-20T00:36:35;5.40;99.90
5617;DHT22;2830;50.656;7.568;2023-12-20T00:39:02;5.40;99.90
5617;DHT22;2830;50.656;7.568;2023-12-20T00:41:29;5.50;99.90
5617;DHT22;2830;50.656;7.568;2023-12-20T00:43:56;5.50;99.90
5617;DHT22;2830;50.656;7.568;2023-12-20T00:46:23;5.50;99.90
5617;DHT22;2830;50.656;7.568;2023-12-20T00:48:50;5.50;99.90
5617;DHT22;2830;50.656;7.568;2023-12-20T00:51:17;5.50;99.90
5617;DHT22;2830;50.656;7.568;2023-12-20T00:53:44;5.50;99.90
5617;DHT22;2830;50.656;7.568;2023-12-20T00:56:11;5.50;99.90
5617;DHT22;2830;50.656;7.568;2023-12-20T00:58:37;5.50;99.90
5617;DHT22;2830;50.656;7.568;2023-12-20T01:01:04;5.50;99.90
5617;DHT22;2830;50.656;7.568;2023-12-20T01:03:31;5.50;99.90
5617;DHT22;2830;50.656;7.568;2023-12-20T01:05:58;5.50;99.90
5617;DHT22;2830;50.656;7.568;2023-12-20T01:08:25;5.50;99.90
5617;DHT22;2830;50.656;7.568;2023-12-20T01:10:52;5.50;99.90
5617;DHT22;2830;50.656;7.568;2023-12-20T01:13:19;5.50;99.90
5617;DHT22;2830;50.656;7.568;2023-12-20T01:15:46;5.50;99.90
5617;DHT22;2830;50.656;7.568;2023-12-20T01:18:14;5.50;99.90
5617;DHT22;2830;50.656;7.568;2023-12-20T01:20:41;5.60;99.90
5617;DHT22;2830;50.656;7.568;2023-12-20T01:23:08;5.60;99.90
5617;DHT22;2830;50.656;7.568;2023-12-20T01:25:35;5.60;99.90
5617;DHT22;2830;50.656;7.568;2023-12-20T01:28:01;5.60;99.90
5617;DHT22;2830;50.656;7.568;2023-12-20T01:30:30;5.60;99.90
5617;DHT22;2830;50.656;7.568;2023-12-20T01:32:56;5.60;99.90
5617;DHT22;2830;50.656;7.568;2023-12-20T01:35:23;5.60;99.90
5617;DHT22;2830;50.656;7.568;2023-12-20T01:37:50;5.60;99.90
5617;DHT22;2830;50.656;7.568;2023-12-20T01:40:18;5.60;99.90
5617;DHT22;2830;50.656;7.568;2023-12-20T01:42:46;5.70;99.90
5617;DHT22;2830;50.656;7.568;2023-12-20T01:45:13;5.70;99.90
5617;DHT22;2830;50.656;7.568;2023-12-20T01:47:40;5.70;99.90
5617;DHT22;2830;50.656;7.568;2023-12-20T01:50:08;5.70;99.90
5617;DHT22;2830;50.656;7.568;2023-12-20T01:52:35;5.80;99.90
5617;DHT22;2830;50.656;7.568;2023-12-20T01:55:04;5.90;99.90
5617;DHT22;2830;50.656;7.568;2023-12-20T01:57:41;5.90;99.90
5617;DHT22;2830;50.656;7.568;2023-12-20T02:00:09;5.90;99.90
5617;DHT22;2830;50.656;7.568;2023-12-20T02:02:39;5.90;99.90
5617;DHT22;2830;50.656;7.568;2023-12-20T02:05:07;5.90;99.90
5617;DHT22;2830;50.656;7.568;2023-12-20T02:07:35;5.90;99.90
5617;DHT22;2830;50.656;7.568;2023-12-20T02:10:02;5.90;99.90
5617;DHT22;2830;50.656;7.568;2023-12-20T02:12:30;5.90;99.90
5617;DHT22;2830;50.656;7.568;2023-12-20T02:14:57;5.90;99.90
5617;DHT22;2830;50.656;7.568;2023-12-20T02:17:24;5.90;99.90
5617;DHT22;2830;50.656;7.568;2023-12-20T02:19:51;5.90;99.90
5617;DHT22;2830;50.656;7.568;2023-12-20T02:22:19;5.90;99.90
5617;DHT22;2830;50.656;7.568;2023-12-20T02:24:45;5.90;99.90
5617;DHT22;2830;50.656;7.568;2023-12-20T02:27:13;5.90;99.90
5617;DHT22;2830;50.656;7.568;2023-12-20T02:29:40;5.90;99.90
5617;DHT22;2830;50.656;7.568;2023-12-20T02:32:07;5.90;99.90
5617;DHT22;2830;50.656;7.568;2023-12-20T02:34:34;5.90;99.90
5617;DHT22;2830;50.656;7.568;2023-12-20T02:37:01;5.90;99.90
5617;DHT22;2830;50.656;7.568;2023-12-20T02:39:28;5.90;99.90
5617;DHT22;2830;50.656;7.568;2023-12-20T02:41:55;5.90;99.90
5617;DHT22;2830;50.656;7.568;2023-12-20T02:44:22;5.90;99.90
5617;DHT22;2830;50.656;7.568;2023-12-20T02:46:49;5.90;99.90
5617;DHT22;2830;50.656;7.568;2023-12-20T02:49:16;5.90;99.90
5617;DHT22;2830;50.656;7.568;2023-12-20T02:51:43;5.90;99.90
5617;DHT22;2830;50.656;7.568;2023-12-20T02:54:10;5.80;99.90
5617;DHT22;2830;50.656;7.568;2023-12-20T02:56:36;5.80;99.90
5617;DHT22;2830;50.656;7.568;2023-12-20T02:59:04;5.80;99.90
5617;DHT22;2830;50.656;7.568;2023-12-20T03:01:32;5.80;99.90
5617;DHT22;2830;50.656;7.568;2023-12-20T03:03:59;5.70;99.90
5617;DHT22;2830;50.656;7.568;2023-12-20T03:06:26;5.70;99.90
5617;DHT22;2830;50.656;7.568;2023-12-20T03:08:53;5.60;99.90
5617;DHT22;2830;50.656;7.568;2023-12-20T03:11:20;5.60;99.90
5617;DHT22;2830;50.656;7.568;2023-12-20T03:13:47;5.50;99.90
5617;DHT22;2830;50.656;7.568;2023-12-20T03:16:14;5.60;99.90
5617;DHT22;2830;50.656;7.568;2023-12-20T03:18:42;5.50;99.90
5617;DHT22;2830;50.656;7.568;2023-12-20T03:21:10;5.50;99.90
5617;DHT22;2830;50.656;7.568;2023-12-20T03:23:36;5.40;99.90
5617;DHT22;2830;50.656;7.568;2023-12-20T03:26:05;5.40;99.90
5617;DHT22;2830;50.656;7.568;2023-12-20T03:28:33;5.30;99.90
5617;DHT22;2830;50.656;7.568;2023-12-20T03:31:00;5.20;99.90
5617;DHT22;2830;50.656;7.568;2023-12-20T03:33:29;5.10;99.90
5617;DHT22;2830;50.656;7.568;2023-12-20T03:35:56;5.00;99.90
5617;DHT22;2830;50.656;7.568;2023-12-20T03:38:23;4.90;99.90
5617;DHT22;2830;50.656;7.568;2023-12-20T03:40:50;4.90;99.90
5617;DHT22;2830;50.656;7.568;2023-12-20T03:43:17;4.80;99.90
5617;DHT22;2830;50.656;7.568;2023-12-20T03:45:44;4.80;99.90
5617;DHT22;2830;50.656;7.568;2023-12-20T03:48:11;4.80;99.90
5617;DHT22;2830;50.656;7.568;2023-12-20T03:50:38;4.90;99.90
5617;DHT22;2830;50.656;7.568;2023-12-20T03:53:05;4.80;99.90
5617;DHT22;2830;50.656;7.568;2023-12-20T03:55:32;4.80;99.90
5617;DHT22;2830;50.656;7.568;2023-12-20T03:57:59;4.90;99.90
5617;DHT22;2830;50.656;7.568;2023-12-20T04:00:26;4.90;99.90
5617;DHT22;2830;50.656;7.568;2023-12-20T04:02:53;4.90;99.90
5617;DHT22;2830;50.656;7.568;2023-12-20T04:05:20;4.90;99.90
5617;DHT22;2830;50.656;7.568;2023-12-20T04:07:47;4.90;99.90
5617;DHT22;2830;50.656;7.568;2023-12-20T04:10:14;4.90;99.90
5617;DHT22;2830;50.656;7.568;2023-12-20T04:12:41;4.90;99.90
5617;DHT22;2830;50.656;7.568;2023-12-20T04:15:08;4.90;99.90
5617;DHT22;2830;50.656;7.568;2023-12-20T04:17:36;5.00;99.90
5617;DHT22;2830;50.656;7.568;2023-12-20T04:20:04;5.00;99.90
5617;DHT22;2830;50.656;7.568;2023-12-20T04:22:31;5.00;99.90
5617;DHT22;2830;50.656;7.568;2023-12-20T04:24:58;5.00;99.90
5617;DHT22;2830;50.656;7.568;2023-12-20T04:27:25;5.00;99.90
5617;DHT22;2830;50.656;7.568;2023-12-20T04:29:52;5.00;99.90
5617;DHT22;2830;50.656;7.568;2023-12-20T04:32:19;5.00;99.90
5617;DHT22;2830;50.656;7.568;2023-12-20T04:34:46;5.00;99.90
5617;DHT22;2830;50.656;7.568;2023-12-20T04:37:13;5.10;99.90
5617;DHT22;2830;50.656;7.568;2023-12-20T04:39:40;5.10;99.90
5617;DHT22;2830;50.656;7.568;2023-12-20T04:42:08;5.00;99.90
5617;DHT22;2830;50.656;7.568;2023-12-20T04:44:35;5.00;99.90
5617;DHT22;2830;50.656;7.568;2023-12-20T04:47:02;5.00;99.90
5617;DHT22;2830;50.656;7.568;2023-12-20T04:49:29;5.00;99.90
5617;DHT22;2830;50.656;7.568;2023-12-20T04:51:56;5.00;99.90
5617;DHT22;2830;50.656;7.568;2023-12-20T04:54:23;5.00;99.90
5617;DHT22;2830;50.656;7.568;2023-12-20T04:56:50;5.00;99.90
5617;DHT22;2830;50.656;7.568;2023-12-20T04:59:17;5.00;99.90
5617;DHT22;2830;50.656;7.568;2023-12-20T05:01:44;5.00;99.90
5617;DHT22;2830;50.656;7.568;2023-12-20T05:04:11;5.10;99.90
5617;DHT22;2830;50.656;7.568;2023-12-20T05:06:38;5.10;99.90
5617;DHT22;2830;50.656;7.568;2023-12-20T05:09:05;5.10;99.90
5617;DHT22;2830;50.656;7.568;2023-12-20T05:11:32;5.00;99.90
5617;DHT22;2830;50.656;7.568;2023-12-20T05:13:58;5.10;99.90
5617;DHT22;2830;50.656;7.568;2023-12-20T05:16:25;5.10;99.90
5617;DHT22;2830;50.656;7.568;2023-12-20T05:18:52;5.10;99.90
5617;DHT22;2830;50.656;7.568;2023-12-20T05:21:19;5.20;99.90
5617;DHT22;2830;50.656;7.568;2023-12-20T05:23:46;5.20;99.90
5617;DHT22;2830;50.656;7.568;2023-12-20T05:26:16;5.20;99.90
5617;DHT22;2830;50.656;7.568;2023-12-20T05:28:43;5.20;99.90
5617;DHT22;2830;50.656;7.568;2023-12-20T05:31:10;5.20;99.90
5617;DHT22;2830;50.656;7.568;2023-12-20T05:33:37;5.20;99.90
5617;DHT22;2830;50.656;7.568;2023-12-20T05:36:04;5.20;99.90
5617;DHT22;2830;50.656;7.568;2023-12-20T05:38:31;5.20;99.90
5617;DHT22;2830;50.656;7.568;2023-12-20T05:40:58;5.20;99.90
5617;DHT22;2830;50.656;7.568;2023-12-20T05:43:24;5.20;99.90
5617;DHT22;2830;50.656;7.568;2023-12-20T05:45:51;5.20;99.90
5617;DHT22;2830;50.656;7.568;2023-12-20T05:48:18;5.20;99.90
5617;DHT22;2830;50.656;7.568;2023-12-20T05:50:45;5.20;99.90
5617;DHT22;2830;50.656;7.568;2023-12-20T05:53:12;5.20;99.90
5617;DHT22;2830;50.656;7.568;2023-12-20T05:55:39;5.20;99.90
5617;DHT22;2830;50.656;7.568;2023-12-20T05:58:06;5.20;99.90
5617;DHT22;2830;50.656;7.568;2023-12-20T06:00:33;5.10;99.90
5617;DHT22;2830;50.656;7.568;2023-12-20T06:03:00;5.20;99.90
5617;DHT22;2830;50.656;7.568;2023-12-20T06:05:27;5.20;99.90
5617;DHT22;2830;50.656;7.568;2023-12-20T06:07:54;5.20;99.90
5617;DHT22;2830;50.656;7.568;2023-12-20T06:10:23;5.20;99.90
5617;DHT22;2830;50.656;7.568;2023-12-20T06:12:50;5.20;99.90
5617;DHT22;2830;50.656;7.568;2023-12-20T06:15:18;5.20;99.90
5617;DHT22;2830;50.656;7.568;2023-12-20T06:17:45;5.30;99.90
5617;DHT22;2830;50.656;7.568;2023-12-20T06:20:14;5.30;99.90
5617;DHT22;2830;50.656;7.568;2023-12-20T06:22:41;5.30;99.90
5617;DHT22;2830;50.656;7.568;2023-12-20T06:25:08;5.30;99.90
5617;DHT22;2830;50.656;7.568;2023-12-20T06:27:35;5.20;99.90
5617;DHT22;2830;50.656;7.568;2023-12-20T06:30:03;5.20;99.90
5617;DHT22;2830;50.656;7.568;2023-12-20T06:32:30;5.30;99.90
5617;DHT22;2830;50.656;7.568;2023-12-20T06:34:57;5.20;99.90
5617;DHT22;2830;50.656;7.568;2023-12-20T06:37:24;5.30;99.90
5617;DHT22;2830;50.656;7.568;2023-12-20T06:39:51;5.30;99.90
5617;DHT22;2830;50.656;7.568;2023-12-20T06:42:18;5.20;99.90
5617;DHT22;2830;50.656;7.568;2023-12-20T06:44:44;5.20;99.90
5617;DHT22;2830;50.656;7.568;2023-12-20T06:47:11;5.30;99.90
5617;DHT22;2830;50.656;7.568;2023-12-20T06:49:40;5.30;99.90
5617;DHT22;2830;50.656;7.568;2023-12-20T06:52:07;5.30;99.90
5617;DHT22;2830;50.656;7.568;2023-12-20T06:54:34;5.20;99.90
5617;DHT22;2830;50.656;7.568;2023-12-20T06:57:01;5.10;99.90
5617;DHT22;2830;50.656;7.568;2023-12-20T06:59:29;5.10;99.90
5617;DHT22;2830;50.656;7.568;2023-12-20T07:01:56;5.20;99.90
5617;DHT22;2830;50.656;7.568;2023-12-20T07:04:23;5.20;99.90
5617;DHT22;2830;50.656;7.568;2023-12-20T07:06:50;5.20;99.90
5617;DHT22;2830;50.656;7.568;2023-12-20T07:09:24;5.20;99.90
5617;DHT22;2830;50.656;7.568;2023-12-20T07:11:51;5.20;99.90
5617;DHT22;2830;50.656;7.568;2023-12-20T07:14:18;5.20;99.90
5617;DHT22;2830;50.656;7.568;2023-12-20T07:16:45;5.20;99.90
5617;DHT22;2830;50.656;7.568;2023-12-20T07:19:12;5.20;99.90
5617;DHT22;2830;50.656;7.568;2023-12-20T07:21:39;5.20;99.90
5617;DHT22;2830;50.656;7.568;2023-12-20T07:24:06;5.20;99.90
5617;DHT22;2830;50.656;7.568;2023-12-20T07:26:32;5.20;99.90
5617;DHT22;2830;50.656;7.568;2023-12-20T07:29:00;5.20;99.90
5617;DHT22;2830;50.656;7.568;2023-12-20T07:31:27;5.10;99.90
5617;DHT22;2830;50.656;7.568;2023-12-20T07:33:54;5.20;99.90
5617;DHT22;2830;50.656;7.568;2023-12-20T07:36:21;5.20;99.90
5617;DHT22;2830;50.656;7.568;2023-12-20T07:38:48;5.20;99.90
5617;DHT22;2830;50.656;7.568;2023-12-20T07:41:15;5.20;99.90
5617;DHT22;2830;50.656;7.568;2023-12-20T07:43:47;5.20;99.90
5617;DHT22;2830;50.656;7.568;2023-12-20T07:46:14;5.10;99.90
5617;DHT22;2830;50.656;7.568;2023-12-20T07:48:41;5.20;99.90
5617;DHT22;2830;50.656;7.568;2023-12-20T07:51:11;5.20;99.90
5617;DHT22;2830;50.656;7.568;2023-12-20T07:53:38;5.20;99.90
5617;DHT22;2830;50.656;7.568;2023-12-20T07:56:25;5.20;99.90
5617;DHT22;2830;50.656;7.568;2023-12-20T07:58:52;5.30;99.90
5617;DHT22;2830;50.656;7.568;2023-12-20T08:01:20;5.20;99.90
5617;DHT22;2830;50.656;7.568;2023-12-20T08:03:49;5.20;99.90
5617;DHT22;2830;50.656;7.568;2023-12-20T08:06:16;5.30;99.90
5617;DHT22;2830;50.656;7.568;2023-12-20T08:08:44;5.30;99.90
5617;DHT22;2830;50.656;7.568;2023-12-20T08:11:11;5.30;99.90
5617;DHT22;2830;50.656;7.568;2023-12-20T08:13:38;5.30;99.90
5617;DHT22;2830;50.656;7.568;2023-12-20T08:16:05;5.30;99.90
5617;DHT22;2830;50.656;7.568;2023-12-20T08:18:32;5.30;99.90
5617;DHT22;2830;50.656;7.568;2023-12-20T08:20:59;5.30;99.90
5617;DHT22;2830;50.656;7.568;2023-12-20T08:23:27;5.30;99.90
5617;DHT22;2830;50.656;7.568;2023-12-20T08:25:56;5.40;99.90
5617;DHT22;2830;50.656;7.568;2023-12-20T08:28:22;5.40;99.90
5617;DHT22;2830;50.656;7.568;2023-12-20T08:30:49;5.30;99.90
5617;DHT22;2830;50.656;7.568;2023-12-20T08:33:20;5.40;99.90
5617;DHT22;2830;50.656;7.568;2023-12-20T08:35:47;5.30;99.90
5617;DHT22;2830;50.656;7.568;2023-12-20T08:38:14;5.30;99.90
5617;DHT22;2830;50.656;7.568;2023-12-20T08:40:41;5.40;99.90
5617;DHT22;2830;50.656;7.568;2023-12-20T08:43:08;5.40;99.90
5617;DHT22;2830;50.656;7.568;2023-12-20T08:45:35;5.40;99.90
5617;DHT22;2830;50.656;7.568;2023-12-20T08:48:03;5.50;99.90
5617;DHT22;2830;50.656;7.568;2023-12-20T08:50:33;5.50;99.90
5617;DHT22;2830;50.656;7.568;2023-12-20T08:53:00;5.50;99.90
5617;DHT22;2830;50.656;7.568;2023-12-20T08:55:27;5.50;99.90
5617;DHT22;2830;50.656;7.568;2023-12-20T08:57:55;5.50;99.90
5617;DHT22;2830;50.656;7.568;2023-12-20T09:00:22;5.50;99.90
5617;DHT22;2830;50.656;7.568;2023-12-20T09:02:52;5.50;99.90
5617;DHT22;2830;50.656;7.568;2023-12-20T09:05:19;5.50;99.90
5617;DHT22;2830;50.656;7.568;2023-12-20T09:07:46;5.50;99.90
5617;DHT22;2830;50.656;7.568;2023-12-20T09:10:13;5.60;99.90
5617;DHT22;2830;50.656;7.568;2023-12-20T09:12:42;5.60;99.90
5617;DHT22;2830;50.656;7.568;2023-12-20T09:15:09;5.70;99.90
5617;DHT22;2830;50.656;7.568;2023-12-20T09:17:36;5.70;99.90
5617;DHT22;2830;50.656;7.568;2023-12-20T09:20:04;5.70;99.90
5617;DHT22;2830;50.656;7.568;2023-12-20T09:22:34;5.70;99.90
5617;DHT22;2830;50.656;7.568;2023-12-20T09:25:01;5.80;99.90
5617;DHT22;2830;50.656;7.568;2023-12-20T09:27:28;5.80;99.90
5617;DHT22;2830;50.656;7.568;2023-12-20T09:29:55;5.80;99.90
5617;DHT22;2830;50.656;7.568;2023-12-20T09:32:22;5.80;99.90
5617;DHT22;2830;50.656;7.568;2023-12-20T09:34:49;5.80;99.90
5617;DHT22;2830;50.656;7.568;2023-12-20T09:37:16;5.80;99.90
5617;DHT22;2830;50.656;7.568;2023-12-20T09:39:43;5.90;99.90
5617;DHT22;2830;50.656;7.568;2023-12-20T09:42:12;5.80;99.90
5617;DHT22;2830;50.656;7.568;2023-12-20T09:44:43;5.90;99.90
5617;DHT22;2830;50.656;7.568;2023-12-20T09:47:14;5.90;99.90
5617;DHT22;2830;50.656;7.568;2023-12-20T09:49:43;5.90;99.90
5617;DHT22;2830;50.656;7.568;2023-12-20T09:52:11;5.90;99.90
5617;DHT22;2830;50.656;7.568;2023-12-20T09:54:39;5.90;99.90
5617;DHT22;2830;50.656;7.568;2023-12-20T09:57:07;5.90;99.90
5617;DHT22;2830;50.656;7.568;2023-12-20T09:59:35;5.90;99.90
5617;DHT22;2830;50.656;7.568;2023-12-20T10:02:04;5.90;99.90
5617;DHT22;2830;50.656;7.568;2023-12-20T10:04:32;5.90;99.90
5617;DHT22;2830;50.656;7.568;2023-12-20T10:07:02;5.90;99.90
5617;DHT22;2830;50.656;7.568;2023-12-20T10:09:32;6.00;99.90
5617;DHT22;2830;50.656;7.568;2023-12-20T10:12:01;6.00;99.90
5617;DHT22;2830;50.656;7.568;2023-12-20T10:14:28;6.00;99.90
5617;DHT22;2830;50.656;7.568;2023-12-20T10:17:02;5.90;99.90
5617;DHT22;2830;50.656;7.568;2023-12-20T10:19:29;5.90;99.90
5617;DHT22;2830;50.656;7.568;2023-12-20T10:21:58;5.90;99.90
5617;DHT22;2830;50.656;7.568;2023-12-20T10:24:28;6.00;99.90
5617;DHT22;2830;50.656;7.568;2023-12-20T10:27:07;6.00;99.90
5617;DHT22;2830;50.656;7.568;2023-12-20T10:29:38;5.90;99.90
5617;DHT22;2830;50.656;7.568;2023-12-20T10:32:25;6.00;99.90
5617;DHT22;2830;50.656;7.568;2023-12-20T10:34:54;5.90;99.90
5617;DHT22;2830;50.656;7.568;2023-12-20T10:37:21;6.00;99.90
5617;DHT22;2830;50.656;7.568;2023-12-20T10:39:53;6.00;99.90
5617;DHT22;2830;50.656;7.568;2023-12-20T10:42:28;6.00;99.90
5617;DHT22;2830;50.656;7.568;2023-12-20T10:44:58;6.00;99.90
5617;DHT22;2830;50.656;7.568;2023-12-20T10:47:25;6.10;99.90
5617;DHT22;2830;50.656;7.568;2023-12-20T10:49:54;6.10;99.90
5617;DHT22;2830;50.656;7.568;2023-12-20T10:52:23;6.10;99.90
5617;DHT22;2830;50.656;7.568;2023-12-20T10:54:51;6.10;99.90
5617;DHT22;2830;50.656;7.568;2023-12-20T10:57:18;6.00;99.90
5617;DHT22;2830;50.656;7.568;2023-12-20T10:59:48;6.00;99.90
5617;DHT22;2830;50.656;7.568;2023-12-20T11:02:21;6.10;99.90
5617;DHT22;2830;50.656;7.568;2023-12-20T11:05:10;6.10;99.90
5617;DHT22;2830;50.656;7.568;2023-12-20T11:07:48;6.10;99.90
5617;DHT22;2830;50.656;7.568;2023-12-20T11:10:21;6.10;99.90
5617;DHT22;2830;50.656;7.568;2023-12-20T11:12:54;6.10;99.90
5617;DHT22;2830;50.656;7.568;2023-12-20T11:15:25;6.20;99.90
5617;DHT22;2830;50.656;7.568;2023-12-20T11:17:57;6.20;99.90
5617;DHT22;2830;50.656;7.568;2023-12-20T11:20:39;6.20;99.90
5617;DHT22;2830;50.656;7.568;2023-12-20T11:23:07;6.20;99.90
5617;DHT22;2830;50.656;7.568;2023-12-20T11:25:54;6.20;99.90
5617;DHT22;2830;50.656;7.568;2023-12-20T11:28:23;6.20;99.90
5617;DHT22;2830;50.656;7.568;2023-12-20T11:30:54;6.20;99.90
5617;DHT22;2830;50.656;7.568;2023-12-20T11:33:24;6.20;99.90
5617;DHT22;2830;50.656;7.568;2023-12-20T11:35:59;6.20;99.90
5617;DHT22;2830;50.656;7.568;2023-12-20T11:38:27;6.20;99.90
5617;DHT22;2830;50.656;7.568;2023-12-20T11:40:54;6.20;99.90
5617;DHT22;2830;50.656;7.568;2023-12-20T11:43:38;6.20;99.90
5617;DHT22;2830;50.656;7.568;2023-12-20T11:46:07;6.30;99.90
5617;DHT22;2830;50.656;7.568;2023-12-20T11:48:38;6.30;99.90
5617;DHT22;2830;50.656;7.568;2023-12-20T11:51:10;6.20;99.90
5617;DHT22;2830;50.656;7.568;2023-12-20T11:53:38;6.20;99.90
5617;DHT22;2830;50.656;7.568;2023-12-20T11:56:06;6.30;99.90
5617;DHT22;2830;50.656;7.568;2023-12-20T11:58:34;6.40;99.90
5617;DHT22;2830;50.656;7.568;2023-12-20T12:01:01;6.40;99.90
5617;DHT22;2830;50.656;7.568;2023-12-20T12:03:31;6.40;99.90
5617;DHT22;2830;50.656;7.568;2023-12-20T12:05:59;6.40;99.90
5617;DHT22;2830;50.656;7.568;2023-12-20T12:08:27;6.40;99.90
5617;DHT22;2830;50.656;7.568;2023-12-20T12:10:54;6.40;99.90
5617;DHT22;2830;50.656;7.568;2023-12-20T12:13:21;6.40;99.90
5617;DHT22;2830;50.656;7.568;2023-12-20T12:15:48;6.50;99.90
5617;DHT22;2830;50.656;7.568;2023-12-20T12:18:17;6.50;99.90
5617;DHT22;2830;50.656;7.568;2023-12-20T12:20:44;6.50;99.90
5617;DHT22;2830;50.656;7.568;2023-12-20T12:23:11;6.40;99.90
5617;DHT22;2830;50.656;7.568;2023-12-20T12:25:38;6.40;99.90
5617;DHT22;2830;50.656;7.568;2023-12-20T12:28:09;6.50;99.90
5617;DHT22;2830;50.656;7.568;2023-12-20T12:30:37;6.50;99.90
5617;DHT22;2830;50.656;7.568;2023-12-20T12:33:12;6.50;99.90
5617;DHT22;2830;50.656;7.568;2023-12-20T12:35:40;6.60;99.90
5617;DHT22;2830;50.656;7.568;2023-12-20T12:38:08;6.60;99.90
5617;DHT22;2830;50.656;7.568;2023-12-20T12:40:35;6.60;99.90
5617;DHT22;2830;50.656;7.568;2023-12-20T12:43:05;6.50;99.90
5617;DHT22;2830;50.656;7.568;2023-12-20T12:45:33;6.50;99.90
5617;DHT22;2830;50.656;7.568;2023-12-20T12:48:00;6.50;99.90
5617;DHT22;2830;50.656;7.568;2023-12-20T12:50:27;6.50;99.90
5617;DHT22;2830;50.656;7.568;2023-12-20T12:52:55;6.60;99.90
5617;DHT22;2830;50.656;7.568;2023-12-20T12:55:22;6.60;99.90
5617;DHT22;2830;50.656;7.568;2023-12-20T12:57:49;6.60;99.90
5617;DHT22;2830;50.656;7.568;2023-12-20T13:00:16;6.70;99.90
5617;DHT22;2830;50.656;7.568;2023-12-20T13:02:43;6.60;99.90
5617;DHT22;2830;50.656;7.568;2023-12-20T13:05:10;6.70;99.90
5617;DHT22;2830;50.656;7.568;2023-12-20T13:07:37;6.70;99.90
5617;DHT22;2830;50.656;7.568;2023-12-20T13:10:06;6.70;99.90
5617;DHT22;2830;50.656;7.568;2023-12-20T13:12:33;6.60;99.90
5617;DHT22;2830;50.656;7.568;2023-12-20T13:15:00;6.60;99.90
5617;DHT22;2830;50.656;7.568;2023-12-20T13:17:27;6.50;99.90
5617;DHT22;2830;50.656;7.568;2023-12-20T13:19:57;6.50;99.90
5617;DHT22;2830;50.656;7.568;2023-12-20T13:22:24;6.50;99.90
5617;DHT22;2830;50.656;7.568;2023-12-20T13:24:51;6.40;99.90
5617;DHT22;2830;50.656;7.568;2023-12-20T13:27:18;6.40;99.90
5617;DHT22;2830;50.656;7.568;2023-12-20T13:29:45;6.30;99.90
5617;DHT22;2830;50.656;7.568;2023-12-20T13:32:12;6.30;99.90
5617;DHT22;2830;50.656;7.568;2023-12-20T13:34:39;6.20;99.90
5617;DHT22;2830;50.656;7.568;2023-12-20T13:37:06;6.20;99.90
5617;DHT22;2830;50.656;7.568;2023-12-20T13:39:33;6.10;99.90
5617;DHT22;2830;50.656;7.568;2023-12-20T13:42:00;6.10;99.90
5617;DHT22;2830;50.656;7.568;2023-12-20T13:44:27;6.10;99.90
5617;DHT22;2830;50.656;7.568;2023-12-20T13:46:54;6.10;99.90
5617;DHT22;2830;50.656;7.568;2023-12-20T13:49:21;6.10;99.90
5617;DHT22;2830;50.656;7.568;2023-12-20T13:51:53;6.00;99.90
5617;DHT22;2830;50.656;7.568;2023-12-20T13:54:21;6.10;99.90
5617;DHT22;2830;50.656;7.568;2023-12-20T13:56:49;6.10;99.90
5617;DHT22;2830;50.656;7.568;2023-12-20T13:59:34;6.10;99.90
5617;DHT22;2830;50.656;7.568;2023-12-20T14:02:02;6.10;99.90
5617;DHT22;2830;50.656;7.568;2023-12-20T14:04:30;6.10;99.90
5617;DHT22;2830;50.656;7.568;2023-12-20T14:07:09;6.00;99.90
5617;DHT22;2830;50.656;7.568;2023-12-20T14:09:38;6.00;99.90
5617;DHT22;2830;50.656;7.568;2023-12-20T14:12:06;6.00;99.90
5617;DHT22;2830;50.656;7.568;2023-12-20T14:14:33;6.00;99.90
5617;DHT22;2830;50.656;7.568;2023-12-20T14:17:00;5.90;99.90
5617;DHT22;2830;50.656;7.568;2023-12-20T14:19:27;5.90;99.90
5617;DHT22;2830;50.656;7.568;2023-12-20T14:21:54;5.90;99.90
5617;DHT22;2830;50.656;7.568;2023-12-20T14:24:21;5.90;99.90
5617;DHT22;2830;50.656;7.568;2023-12-20T14:26:48;5.90;99.90
5617;DHT22;2830;50.656;7.568;2023-12-20T14:29:15;5.90;99.90
5617;DHT22;2830;50.656;7.568;2023-12-20T14:31:41;5.80;99.90
5617;DHT22;2830;50.656;7.568;2023-12-20T14:34:08;5.80;99.90
5617;DHT22;2830;50.656;7.568;2023-12-20T14:36:36;5.80;99.90
5617;DHT22;2830;50.656;7.568;2023-12-20T14:39:03;5.80;99.90
5617;DHT22;2830;50.656;7.568;2023-12-20T14:41:31;5.70;99.90
5617;DHT22;2830;50.656;7.568;2023-12-20T14:43:58;5.80;99.90
5617;DHT22;2830;50.656;7.568;2023-12-20T14:46:27;5.80;99.90
5617;DHT22;2830;50.656;7.568;2023-12-20T14:48:55;5.80;99.90
5617;DHT22;2830;50.656;7.568;2023-12-20T14:51:22;5.80;99.90
5617;DHT22;2830;50.656;7.568;2023-12-20T14:53:49;5.80;99.90
5617;DHT22;2830;50.656;7.568;2023-12-20T14:56:16;5.80;99.90
5617;DHT22;2830;50.656;7.568;2023-12-20T14:58:43;5.80;99.90
5617;DHT22;2830;50.656;7.568;2023-12-20T15:01:10;5.80;99.90
5617;DHT22;2830;50.656;7.568;2023-12-20T15:03:37;5.80;99.90
5617;DHT22;2830;50.656;7.568;2023-12-20T15:06:06;5.90;99.90
5617;DHT22;2830;50.656;7.568;2023-12-20T15:08:33;5.90;99.90
5617;DHT22;2830;50.656;7.568;2023-12-20T15:11:01;5.90;99.90
5617;DHT22;2830;50.656;7.568;2023-12-20T15:13:30;5.90;99.90
5617;DHT22;2830;50.656;7.568;2023-12-20T15:15:58;5.90;99.90
5617;DHT22;2830;50.656;7.568;2023-12-20T15:18:25;5.90;99.90
5617;DHT22;2830;50.656;7.568;2023-12-20T15:20:52;5.90;99.90
5617;DHT22;2830;50.656;7.568;2023-12-20T15:23:19;5.90;99.90
5617;DHT22;2830;50.656;7.568;2023-12-20T15:25:46;5.90;99.90
5617;DHT22;2830;50.656;7.568;2023-12-20T15:28:13;5.80;99.90
5617;DHT22;2830;50.656;7.568;2023-12-20T15:30:40;5.80;99.90
5617;DHT22;2830;50.656;7.568;2023-12-20T15:33:07;5.90;99.90
5617;DHT22;2830;50.656;7.568;2023-12-20T15:35:34;5.90;99.90
5617;DHT22;2830;50.656;7.568;2023-12-20T15:38:01;5.90;99.90
5617;DHT22;2830;50.656;7.568;2023-12-20T15:40:29;5.90;99.90
5617;DHT22;2830;50.656;7.568;2023-12-20T15:42:56;6.00;99.90
5617;DHT22;2830;50.656;7.568;2023-12-20T15:45:23;5.90;99.90
5617;DHT22;2830;50.656;7.568;2023-12-20T15:47:49;5.90;99.90
5617;DHT22;2830;50.656;7.568;2023-12-20T15:50:17;5.90;99.90
5617;DHT22;2830;50.656;7.568;2023-12-20T15:52:44;5.90;99.90
5617;DHT22;2830;50.656;7.568;2023-12-20T15:55:11;5.90;99.90
5617;DHT22;2830;50.656;7.568;2023-12-20T15:57:38;5.90;99.90
5617;DHT22;2830;50.656;7.568;2023-12-20T16:00:19;5.90;99.90
5617;DHT22;2830;50.656;7.568;2023-12-20T16:02:46;6.00;99.90
5617;DHT22;2830;50.656;7.568;2023-12-20T16:05:13;6.00;99.90
5617;DHT22;2830;50.656;7.568;2023-12-20T16:07:40;6.00;99.90
5617;DHT22;2830;50.656;7.568;2023-12-20T16:10:07;6.00;99.90
5617;DHT22;2830;50.656;7.568;2023-12-20T16:12:34;6.00;99.90
5617;DHT22;2830;50.656;7.568;2023-12-20T16:15:02;6.00;99.90
5617;DHT22;2830;50.656;7.568;2023-12-20T16:17:29;6.00;99.90
5617;DHT22;2830;50.656;7.568;2023-12-20T16:19:56;6.00;99.90
5617;DHT22;2830;50.656;7.568;2023-12-20T16:22:23;6.00;99.90